Terminal Aerodrome Forecast
Issued by NWS Cleveland, OH

Home | Current Version | Previous Version | Text Only | Print | Product List | Glossary On
Versions: 1 2 3 4 5 6 7 8 9 10 11 12 13 14 15 16 17 18 19
000
FTUS41 KCLE 220500 RRA
TAFERI
TAF
KERI 220542Z 2206/2306 33012G18KT P6SM SCT015 OVC020
      TEMPO 2206/2210 5SM -SHRA BKN015
     FM221000 32012G18KT P6SM VCSH OVC015
     FM221800 30012KT P6SM OVC025
     FM222200 26008KT P6SM BKN035=

USA.gov is the U.S. government's official web portal to all federal, state and local government web resources and services.